sensor_id;sensor_type;location;lat;lon;timestamp;temperature;humidity
32446;DHT22;18899;50.748;7.102;2023-12-29T00:02:20;10.90;99.90
32446;DHT22;18899;50.748;7.102;2023-12-29T00:04:45;10.90;99.90
32446;DHT22;18899;50.748;7.102;2023-12-29T00:07:11;10.90;99.90
32446;DHT22;18899;50.748;7.102;2023-12-29T00:09:36;10.90;99.90
32446;DHT22;18899;50.748;7.102;2023-12-29T00:12:07;11.00;99.90
32446;DHT22;18899;50.748;7.102;2023-12-29T00:14:33;11.00;99.90
32446;DHT22;18899;50.748;7.102;2023-12-29T00:16:58;10.90;99.90
32446;DHT22;18899;50.748;7.102;2023-12-29T00:19:25;10.80;99.90
32446;DHT22;18899;50.748;7.102;2023-12-29T00:21:50;10.80;99.90
32446;DHT22;18899;50.748;7.102;2023-12-29T00:24:16;10.80;99.90
32446;DHT22;18899;50.748;7.102;2023-12-29T00:26:42;10.80;99.90
32446;DHT22;18899;50.748;7.102;2023-12-29T00:29:07;10.90;99.90
32446;DHT22;18899;50.748;7.102;2023-12-29T00:31:33;10.80;99.90
32446;DHT22;18899;50.748;7.102;2023-12-29T00:33:59;10.90;99.90
32446;DHT22;18899;50.748;7.102;2023-12-29T00:36:25;10.90;99.90
32446;DHT22;18899;50.748;7.102;2023-12-29T00:38:50;11.00;99.90
32446;DHT22;18899;50.748;7.102;2023-12-29T00:41:16;11.20;99.90
32446;DHT22;18899;50.748;7.102;2023-12-29T00:43:41;11.30;99.90
32446;DHT22;18899;50.748;7.102;2023-12-29T00:46:07;11.40;99.90
32446;DHT22;18899;50.748;7.102;2023-12-29T00:48:34;11.40;99.90
32446;DHT22;18899;50.748;7.102;2023-12-29T00:51:03;11.30;99.90
32446;DHT22;18899;50.748;7.102;2023-12-29T00:53:29;11.20;99.90
32446;DHT22;18899;50.748;7.102;2023-12-29T00:55:57;11.10;99.90
32446;DHT22;18899;50.748;7.102;2023-12-29T00:58:22;10.90;99.90
32446;DHT22;18899;50.748;7.102;2023-12-29T01:00:48;10.90;99.90
32446;DHT22;18899;50.748;7.102;2023-12-29T01:03:13;10.80;99.90
32446;DHT22;18899;50.748;7.102;2023-12-29T01:05:39;10.80;99.90
32446;DHT22;18899;50.748;7.102;2023-12-29T01:08:05;10.70;99.90
32446;DHT22;18899;50.748;7.102;2023-12-29T01:10:30;10.80;99.90
32446;DHT22;18899;50.748;7.102;2023-12-29T01:12:56;10.80;99.90
32446;DHT22;18899;50.748;7.102;2023-12-29T01:15:21;10.80;99.90
32446;DHT22;18899;50.748;7.102;2023-12-29T01:17:47;10.90;99.90
32446;DHT22;18899;50.748;7.102;2023-12-29T01:20:12;10.90;99.90
32446;DHT22;18899;50.748;7.102;2023-12-29T01:22:38;10.90;99.90
32446;DHT22;18899;50.748;7.102;2023-12-29T01:25:03;10.90;99.90
32446;DHT22;18899;50.748;7.102;2023-12-29T01:27:29;10.90;99.90
32446;DHT22;18899;50.748;7.102;2023-12-29T01:29:55;11.00;99.90
32446;DHT22;18899;50.748;7.102;2023-12-29T01:32:21;11.10;99.90
32446;DHT22;18899;50.748;7.102;2023-12-29T01:34:47;11.20;99.90
32446;DHT22;18899;50.748;7.102;2023-12-29T01:37:12;11.20;99.90
32446;DHT22;18899;50.748;7.102;2023-12-29T01:39:38;11.30;99.90
32446;DHT22;18899;50.748;7.102;2023-12-29T01:42:05;11.30;99.90
32446;DHT22;18899;50.748;7.102;2023-12-29T01:44:31;11.40;99.90
32446;DHT22;18899;50.748;7.102;2023-12-29T01:46:59;11.40;99.90
32446;DHT22;18899;50.748;7.102;2023-12-29T01:49:25;11.50;99.90
32446;DHT22;18899;50.748;7.102;2023-12-29T01:51:54;11.50;99.90
32446;DHT22;18899;50.748;7.102;2023-12-29T01:54:20;11.50;99.90
32446;DHT22;18899;50.748;7.102;2023-12-29T01:56:48;11.50;99.90
32446;DHT22;18899;50.748;7.102;2023-12-29T01:59:15;11.50;99.90
32446;DHT22;18899;50.748;7.102;2023-12-29T02:01:42;11.50;99.90
32446;DHT22;18899;50.748;7.102;2023-12-29T02:04:10;11.50;99.90
32446;DHT22;18899;50.748;7.102;2023-12-29T02:06:37;11.50;99.90
32446;DHT22;18899;50.748;7.102;2023-12-29T02:09:04;11.50;99.90
32446;DHT22;18899;50.748;7.102;2023-12-29T02:11:30;11.50;99.90
32446;DHT22;18899;50.748;7.102;2023-12-29T02:13:56;11.50;99.90
32446;DHT22;18899;50.748;7.102;2023-12-29T02:17:15;11.60;99.90
32446;DHT22;18899;50.748;7.102;2023-12-29T02:19:44;11.60;99.90
32446;DHT22;18899;50.748;7.102;2023-12-29T02:22:10;11.50;99.90
32446;DHT22;18899;50.748;7.102;2023-12-29T02:24:37;11.60;99.90
32446;DHT22;18899;50.748;7.102;2023-12-29T02:29:47;11.60;99.90
32446;DHT22;18899;50.748;7.102;2023-12-29T02:32:16;11.50;99.90
32446;DHT22;18899;50.748;7.102;2023-12-29T02:34:44;11.50;99.90
32446;DHT22;18899;50.748;7.102;2023-12-29T02:37:12;11.60;99.90
32446;DHT22;18899;50.748;7.102;2023-12-29T02:39:38;11.50;99.90
32446;DHT22;18899;50.748;7.102;2023-12-29T02:42:04;11.50;99.90
32446;DHT22;18899;50.748;7.102;2023-12-29T02:44:30;11.50;99.90
32446;DHT22;18899;50.748;7.102;2023-12-29T02:46:55;11.50;99.90
32446;DHT22;18899;50.748;7.102;2023-12-29T02:49:21;11.60;99.90
32446;DHT22;18899;50.748;7.102;2023-12-29T02:51:47;11.60;99.90
32446;DHT22;18899;50.748;7.102;2023-12-29T02:54:13;11.60;99.90
32446;DHT22;18899;50.748;7.102;2023-12-29T02:56:38;11.60;99.90
32446;DHT22;18899;50.748;7.102;2023-12-29T02:59:04;11.60;99.90
32446;DHT22;18899;50.748;7.102;2023-12-29T03:01:29;11.60;99.90
32446;DHT22;18899;50.748;7.102;2023-12-29T03:03:55;11.60;99.90
32446;DHT22;18899;50.748;7.102;2023-12-29T03:06:21;11.60;99.90
32446;DHT22;18899;50.748;7.102;2023-12-29T03:08:47;11.60;99.90
32446;DHT22;18899;50.748;7.102;2023-12-29T03:11:12;11.70;99.90
32446;DHT22;18899;50.748;7.102;2023-12-29T03:13:38;11.60;99.90
32446;DHT22;18899;50.748;7.102;2023-12-29T03:16:03;11.70;99.90
32446;DHT22;18899;50.748;7.102;2023-12-29T03:18:29;11.70;99.90
32446;DHT22;18899;50.748;7.102;2023-12-29T03:20:55;11.60;99.90
32446;DHT22;18899;50.748;7.102;2023-12-29T03:23:20;11.60;99.90
32446;DHT22;18899;50.748;7.102;2023-12-29T03:25:46;11.60;99.90
32446;DHT22;18899;50.748;7.102;2023-12-29T03:28:11;11.60;99.90
32446;DHT22;18899;50.748;7.102;2023-12-29T03:30:37;11.60;99.90
32446;DHT22;18899;50.748;7.102;2023-12-29T03:33:02;11.60;99.90
32446;DHT22;18899;50.748;7.102;2023-12-29T03:35:28;11.50;99.90
32446;DHT22;18899;50.748;7.102;2023-12-29T03:37:53;11.60;99.90
32446;DHT22;18899;50.748;7.102;2023-12-29T03:40:19;11.60;99.90
32446;DHT22;18899;50.748;7.102;2023-12-29T03:42:44;11.70;99.90
32446;DHT22;18899;50.748;7.102;2023-12-29T03:45:10;11.70;99.90
32446;DHT22;18899;50.748;7.102;2023-12-29T03:47:35;11.70;99.90
32446;DHT22;18899;50.748;7.102;2023-12-29T03:50:01;11.70;99.90
32446;DHT22;18899;50.748;7.102;2023-12-29T03:52:27;11.70;99.90
32446;DHT22;18899;50.748;7.102;2023-12-29T03:54:52;11.70;99.90
32446;DHT22;18899;50.748;7.102;2023-12-29T03:57:18;11.80;99.90
32446;DHT22;18899;50.748;7.102;2023-12-29T03:59:43;11.80;99.90
32446;DHT22;18899;50.748;7.102;2023-12-29T04:02:09;11.80;99.90
32446;DHT22;18899;50.748;7.102;2023-12-29T04:04:38;11.90;99.90
32446;DHT22;18899;50.748;7.102;2023-12-29T04:07:04;11.80;99.90
32446;DHT22;18899;50.748;7.102;2023-12-29T04:09:30;11.80;99.90
32446;DHT22;18899;50.748;7.102;2023-12-29T04:11:55;11.80;99.90
32446;DHT22;18899;50.748;7.102;2023-12-29T04:14:21;11.80;99.90
32446;DHT22;18899;50.748;7.102;2023-12-29T04:16:46;11.80;99.90
32446;DHT22;18899;50.748;7.102;2023-12-29T04:19:12;11.80;99.90
32446;DHT22;18899;50.748;7.102;2023-12-29T04:21:37;11.90;99.90
32446;DHT22;18899;50.748;7.102;2023-12-29T04:24:03;11.80;99.90
32446;DHT22;18899;50.748;7.102;2023-12-29T04:26:28;11.80;99.90
32446;DHT22;18899;50.748;7.102;2023-12-29T04:28:54;11.80;99.90
32446;DHT22;18899;50.748;7.102;2023-12-29T04:31:19;11.70;99.90
32446;DHT22;18899;50.748;7.102;2023-12-29T04:33:45;11.70;99.90
32446;DHT22;18899;50.748;7.102;2023-12-29T04:36:12;11.60;99.90
32446;DHT22;18899;50.748;7.102;2023-12-29T04:38:39;11.60;99.90
32446;DHT22;18899;50.748;7.102;2023-12-29T04:41:04;11.60;99.90
32446;DHT22;18899;50.748;7.102;2023-12-29T04:43:30;11.60;99.90
32446;DHT22;18899;50.748;7.102;2023-12-29T04:45:56;11.60;99.90
32446;DHT22;18899;50.748;7.102;2023-12-29T04:48:22;11.60;99.90
32446;DHT22;18899;50.748;7.102;2023-12-29T04:50:47;11.60;99.90
32446;DHT22;18899;50.748;7.102;2023-12-29T04:53:13;11.60;99.90
32446;DHT22;18899;50.748;7.102;2023-12-29T04:55:38;11.60;99.90
32446;DHT22;18899;50.748;7.102;2023-12-29T04:58:04;11.60;99.90
32446;DHT22;18899;50.748;7.102;2023-12-29T05:00:29;11.60;99.90
32446;DHT22;18899;50.748;7.102;2023-12-29T05:02:55;11.60;99.90
32446;DHT22;18899;50.748;7.102;2023-12-29T05:05:21;11.60;99.90
32446;DHT22;18899;50.748;7.102;2023-12-29T05:07:46;11.60;99.90
32446;DHT22;18899;50.748;7.102;2023-12-29T05:10:12;11.60;99.90
32446;DHT22;18899;50.748;7.102;2023-12-29T05:12:37;11.70;99.90
32446;DHT22;18899;50.748;7.102;2023-12-29T05:15:03;11.70;99.90
32446;DHT22;18899;50.748;7.102;2023-12-29T05:17:29;11.70;99.90
32446;DHT22;18899;50.748;7.102;2023-12-29T05:19:55;11.60;99.90
32446;DHT22;18899;50.748;7.102;2023-12-29T05:22:20;11.60;99.90
32446;DHT22;18899;50.748;7.102;2023-12-29T05:24:46;11.60;99.90
32446;DHT22;18899;50.748;7.102;2023-12-29T05:27:11;11.60;99.90
32446;DHT22;18899;50.748;7.102;2023-12-29T05:29:37;11.60;99.90
32446;DHT22;18899;50.748;7.102;2023-12-29T05:32:03;11.60;99.90
32446;DHT22;18899;50.748;7.102;2023-12-29T05:34:29;11.60;99.90
32446;DHT22;18899;50.748;7.102;2023-12-29T05:36:55;11.60;99.90
32446;DHT22;18899;50.748;7.102;2023-12-29T05:39:20;11.60;99.90
32446;DHT22;18899;50.748;7.102;2023-12-29T05:41:46;11.60;99.90
32446;DHT22;18899;50.748;7.102;2023-12-29T05:44:11;11.60;99.90
32446;DHT22;18899;50.748;7.102;2023-12-29T05:46:37;11.60;99.90
32446;DHT22;18899;50.748;7.102;2023-12-29T05:49:02;11.60;99.90
32446;DHT22;18899;50.748;7.102;2023-12-29T05:51:28;11.60;99.90
32446;DHT22;18899;50.748;7.102;2023-12-29T05:53:53;11.60;99.90
32446;DHT22;18899;50.748;7.102;2023-12-29T05:56:20;11.60;99.90
32446;DHT22;18899;50.748;7.102;2023-12-29T05:58:45;11.60;99.90
32446;DHT22;18899;50.748;7.102;2023-12-29T06:01:11;11.60;99.90
32446;DHT22;18899;50.748;7.102;2023-12-29T06:03:37;11.70;99.90
32446;DHT22;18899;50.748;7.102;2023-12-29T06:06:02;11.70;99.90
32446;DHT22;18899;50.748;7.102;2023-12-29T06:08:28;11.70;99.90
32446;DHT22;18899;50.748;7.102;2023-12-29T06:10:54;11.70;99.90
32446;DHT22;18899;50.748;7.102;2023-12-29T06:13:19;11.70;99.90
32446;DHT22;18899;50.748;7.102;2023-12-29T06:15:45;11.80;99.90
32446;DHT22;18899;50.748;7.102;2023-12-29T06:18:10;11.80;99.90
32446;DHT22;18899;50.748;7.102;2023-12-29T06:20:36;11.80;99.90
32446;DHT22;18899;50.748;7.102;2023-12-29T06:23:01;11.80;99.90
32446;DHT22;18899;50.748;7.102;2023-12-29T06:25:27;11.70;99.90
32446;DHT22;18899;50.748;7.102;2023-12-29T06:27:53;11.80;99.90
32446;DHT22;18899;50.748;7.102;2023-12-29T06:30:19;11.80;99.90
32446;DHT22;18899;50.748;7.102;2023-12-29T06:32:45;11.70;99.90
32446;DHT22;18899;50.748;7.102;2023-12-29T06:35:11;11.70;99.90
32446;DHT22;18899;50.748;7.102;2023-12-29T06:37:37;11.70;99.90
32446;DHT22;18899;50.748;7.102;2023-12-29T06:40:04;11.60;99.90
32446;DHT22;18899;50.748;7.102;2023-12-29T06:42:30;11.70;99.90
32446;DHT22;18899;50.748;7.102;2023-12-29T06:44:56;11.60;99.90
32446;DHT22;18899;50.748;7.102;2023-12-29T06:47:22;11.60;99.90
32446;DHT22;18899;50.748;7.102;2023-12-29T06:49:48;11.60;99.90
32446;DHT22;18899;50.748;7.102;2023-12-29T06:52:13;11.60;99.90
32446;DHT22;18899;50.748;7.102;2023-12-29T06:54:39;11.50;99.90
32446;DHT22;18899;50.748;7.102;2023-12-29T06:57:04;11.50;99.90
32446;DHT22;18899;50.748;7.102;2023-12-29T06:59:30;11.60;99.90
32446;DHT22;18899;50.748;7.102;2023-12-29T07:01:56;11.50;99.90
32446;DHT22;18899;50.748;7.102;2023-12-29T07:04:21;11.50;99.90
32446;DHT22;18899;50.748;7.102;2023-12-29T07:06:47;11.50;99.90
32446;DHT22;18899;50.748;7.102;2023-12-29T07:09:12;11.50;99.90
32446;DHT22;18899;50.748;7.102;2023-12-29T07:11:38;11.50;99.90
32446;DHT22;18899;50.748;7.102;2023-12-29T07:14:03;11.50;99.90
32446;DHT22;18899;50.748;7.102;2023-12-29T07:16:29;11.40;99.90
32446;DHT22;18899;50.748;7.102;2023-12-29T07:18:54;11.50;99.90
32446;DHT22;18899;50.748;7.102;2023-12-29T07:21:20;11.50;99.90
32446;DHT22;18899;50.748;7.102;2023-12-29T07:23:46;11.50;99.90
32446;DHT22;18899;50.748;7.102;2023-12-29T07:26:11;11.60;99.90
32446;DHT22;18899;50.748;7.102;2023-12-29T07:28:37;11.60;99.90
32446;DHT22;18899;50.748;7.102;2023-12-29T07:31:02;11.60;99.90
32446;DHT22;18899;50.748;7.102;2023-12-29T07:33:28;11.60;99.90
32446;DHT22;18899;50.748;7.102;2023-12-29T07:35:54;11.60;99.90
32446;DHT22;18899;50.748;7.102;2023-12-29T07:38:19;11.60;99.90
32446;DHT22;18899;50.748;7.102;2023-12-29T07:40:45;11.60;99.90
32446;DHT22;18899;50.748;7.102;2023-12-29T07:43:13;11.50;99.90
32446;DHT22;18899;50.748;7.102;2023-12-29T07:45:38;11.50;99.90
32446;DHT22;18899;50.748;7.102;2023-12-29T07:48:05;11.50;99.90
32446;DHT22;18899;50.748;7.102;2023-12-29T07:50:30;11.60;99.90
32446;DHT22;18899;50.748;7.102;2023-12-29T07:52:56;11.70;99.90
32446;DHT22;18899;50.748;7.102;2023-12-29T07:55:21;11.70;99.90
32446;DHT22;18899;50.748;7.102;2023-12-29T07:57:47;11.70;99.90
32446;DHT22;18899;50.748;7.102;2023-12-29T08:00:16;11.70;99.90
32446;DHT22;18899;50.748;7.102;2023-12-29T08:02:42;11.60;99.90
32446;DHT22;18899;50.748;7.102;2023-12-29T08:05:08;11.60;99.90
32446;DHT22;18899;50.748;7.102;2023-12-29T08:07:34;11.60;99.90
32446;DHT22;18899;50.748;7.102;2023-12-29T08:10:00;11.60;99.90
32446;DHT22;18899;50.748;7.102;2023-12-29T08:12:26;11.70;99.90
32446;DHT22;18899;50.748;7.102;2023-12-29T08:14:53;11.70;99.90
32446;DHT22;18899;50.748;7.102;2023-12-29T08:17:19;11.70;99.90
32446;DHT22;18899;50.748;7.102;2023-12-29T08:19:44;11.70;99.90
32446;DHT22;18899;50.748;7.102;2023-12-29T08:22:10;11.70;99.90
32446;DHT22;18899;50.748;7.102;2023-12-29T08:24:39;11.70;99.90
32446;DHT22;18899;50.748;7.102;2023-12-29T08:27:05;11.80;99.90
32446;DHT22;18899;50.748;7.102;2023-12-29T08:29:30;11.80;99.90
32446;DHT22;18899;50.748;7.102;2023-12-29T08:31:56;11.80;99.90
32446;DHT22;18899;50.748;7.102;2023-12-29T08:34:21;11.80;99.90
32446;DHT22;18899;50.748;7.102;2023-12-29T08:36:47;11.90;99.90
32446;DHT22;18899;50.748;7.102;2023-12-29T08:39:12;11.90;99.90
32446;DHT22;18899;50.748;7.102;2023-12-29T08:41:38;12.00;99.90
32446;DHT22;18899;50.748;7.102;2023-12-29T08:44:03;12.10;99.90
32446;DHT22;18899;50.748;7.102;2023-12-29T08:46:29;12.10;99.90
32446;DHT22;18899;50.748;7.102;2023-12-29T08:48:55;12.10;99.90
32446;DHT22;18899;50.748;7.102;2023-12-29T08:51:20;12.10;99.90
32446;DHT22;18899;50.748;7.102;2023-12-29T08:53:46;12.10;99.90
32446;DHT22;18899;50.748;7.102;2023-12-29T08:56:11;12.10;99.90
32446;DHT22;18899;50.748;7.102;2023-12-29T08:58:37;12.20;99.90
32446;DHT22;18899;50.748;7.102;2023-12-29T09:01:02;12.20;99.90
32446;DHT22;18899;50.748;7.102;2023-12-29T09:03:28;12.20;99.90
32446;DHT22;18899;50.748;7.102;2023-12-29T09:05:53;12.20;99.90
32446;DHT22;18899;50.748;7.102;2023-12-29T09:08:19;12.30;99.90
32446;DHT22;18899;50.748;7.102;2023-12-29T09:10:45;12.30;99.90
32446;DHT22;18899;50.748;7.102;2023-12-29T09:13:10;12.40;99.90
32446;DHT22;18899;50.748;7.102;2023-12-29T09:15:36;12.40;99.90
32446;DHT22;18899;50.748;7.102;2023-12-29T09:18:01;12.40;99.90
32446;DHT22;18899;50.748;7.102;2023-12-29T09:20:27;12.50;99.90
32446;DHT22;18899;50.748;7.102;2023-12-29T09:22:52;12.50;99.90
32446;DHT22;18899;50.748;7.102;2023-12-29T09:25:19;12.60;99.90
32446;DHT22;18899;50.748;7.102;2023-12-29T09:27:44;12.70;99.90
32446;DHT22;18899;50.748;7.102;2023-12-29T09:30:11;12.80;99.90
32446;DHT22;18899;50.748;7.102;2023-12-29T09:32:36;12.80;99.90
32446;DHT22;18899;50.748;7.102;2023-12-29T09:35:02;12.80;99.90
32446;DHT22;18899;50.748;7.102;2023-12-29T09:37:28;12.80;99.90
32446;DHT22;18899;50.748;7.102;2023-12-29T09:39:54;12.80;99.90
32446;DHT22;18899;50.748;7.102;2023-12-29T09:42:21;12.80;99.90
32446;DHT22;18899;50.748;7.102;2023-12-29T09:44:50;12.80;99.90
32446;DHT22;18899;50.748;7.102;2023-12-29T09:47:20;12.90;99.90
32446;DHT22;18899;50.748;7.102;2023-12-29T09:49:48;13.00;99.90
32446;DHT22;18899;50.748;7.102;2023-12-29T09:52:16;13.00;99.90
32446;DHT22;18899;50.748;7.102;2023-12-29T09:54:42;13.20;99.90
32446;DHT22;18899;50.748;7.102;2023-12-29T09:57:08;13.40;99.90
32446;DHT22;18899;50.748;7.102;2023-12-29T09:59:38;13.60;99.90
32446;DHT22;18899;50.748;7.102;2023-12-29T10:02:14;13.70;99.90
32446;DHT22;18899;50.748;7.102;2023-12-29T10:04:41;13.50;99.90
32446;DHT22;18899;50.748;7.102;2023-12-29T10:07:07;13.50;99.90
32446;DHT22;18899;50.748;7.102;2023-12-29T10:09:34;13.40;99.90
32446;DHT22;18899;50.748;7.102;2023-12-29T10:12:03;13.30;99.90
32446;DHT22;18899;50.748;7.102;2023-12-29T10:14:53;13.10;99.90
32446;DHT22;18899;50.748;7.102;2023-12-29T10:20:30;13.10;99.90
32446;DHT22;18899;50.748;7.102;2023-12-29T10:23:13;13.10;99.90
32446;DHT22;18899;50.748;7.102;2023-12-29T10:25:42;13.10;99.90
32446;DHT22;18899;50.748;7.102;2023-12-29T10:28:09;13.10;99.90
32446;DHT22;18899;50.748;7.102;2023-12-29T10:30:35;13.10;99.90
32446;DHT22;18899;50.748;7.102;2023-12-29T10:33:01;13.00;99.90
32446;DHT22;18899;50.748;7.102;2023-12-29T10:35:29;13.00;99.90
32446;DHT22;18899;50.748;7.102;2023-12-29T10:38:11;13.10;99.90
32446;DHT22;18899;50.748;7.102;2023-12-29T10:40:37;13.20;99.90
32446;DHT22;18899;50.748;7.102;2023-12-29T10:43:03;13.30;99.90
32446;DHT22;18899;50.748;7.102;2023-12-29T10:45:33;13.40;99.90
32446;DHT22;18899;50.748;7.102;2023-12-29T10:48:00;13.50;99.90
32446;DHT22;18899;50.748;7.102;2023-12-29T10:50:26;13.70;99.90
32446;DHT22;18899;50.748;7.102;2023-12-29T10:53:14;13.90;99.90
32446;DHT22;18899;50.748;7.102;2023-12-29T10:55:38;14.20;99.90
32446;DHT22;18899;50.748;7.102;2023-12-29T10:58:05;14.30;99.90
32446;DHT22;18899;50.748;7.102;2023-12-29T11:00:31;14.50;99.90
32446;DHT22;18899;50.748;7.102;2023-12-29T11:02:58;14.60;99.90
32446;DHT22;18899;50.748;7.102;2023-12-29T11:05:27;14.70;99.90
32446;DHT22;18899;50.748;7.102;2023-12-29T11:07:54;14.60;99.90
32446;DHT22;18899;50.748;7.102;2023-12-29T11:10:21;14.70;99.90
32446;DHT22;18899;50.748;7.102;2023-12-29T11:12:47;14.60;99.90
32446;DHT22;18899;50.748;7.102;2023-12-29T11:15:14;14.30;99.90
32446;DHT22;18899;50.748;7.102;2023-12-29T11:17:42;14.10;99.90
32446;DHT22;18899;50.748;7.102;2023-12-29T11:20:17;14.10;99.90
32446;DHT22;18899;50.748;7.102;2023-12-29T11:22:46;13.90;99.90
32446;DHT22;18899;50.748;7.102;2023-12-29T11:25:12;13.80;99.90
32446;DHT22;18899;50.748;7.102;2023-12-29T11:27:38;13.60;99.90
32446;DHT22;18899;50.748;7.102;2023-12-29T11:30:04;13.60;99.90
32446;DHT22;18899;50.748;7.102;2023-12-29T11:33:24;13.70;99.90
32446;DHT22;18899;50.748;7.102;2023-12-29T11:36:02;13.70;99.90
32446;DHT22;18899;50.748;7.102;2023-12-29T11:38:59;13.70;99.90
32446;DHT22;18899;50.748;7.102;2023-12-29T11:44:07;13.90;99.90
32446;DHT22;18899;50.748;7.102;2023-12-29T11:46:37;13.90;99.90
32446;DHT22;18899;50.748;7.102;2023-12-29T11:49:03;14.00;99.90
32446;DHT22;18899;50.748;7.102;2023-12-29T11:51:41;14.10;99.90
32446;DHT22;18899;50.748;7.102;2023-12-29T11:54:08;14.10;99.90
32446;DHT22;18899;50.748;7.102;2023-12-29T11:56:38;14.10;99.90
32446;DHT22;18899;50.748;7.102;2023-12-29T11:59:13;13.80;99.90
32446;DHT22;18899;50.748;7.102;2023-12-29T12:01:39;13.90;99.90
32446;DHT22;18899;50.748;7.102;2023-12-29T12:07:01;13.90;99.90
32446;DHT22;18899;50.748;7.102;2023-12-29T12:09:27;14.00;99.90
32446;DHT22;18899;50.748;7.102;2023-12-29T12:11:52;13.90;99.90
32446;DHT22;18899;50.748;7.102;2023-12-29T12:14:47;13.90;99.90
32446;DHT22;18899;50.748;7.102;2023-12-29T12:17:34;14.10;99.90
32446;DHT22;18899;50.748;7.102;2023-12-29T12:20:07;14.20;99.90
32446;DHT22;18899;50.748;7.102;2023-12-29T12:22:37;14.20;99.90
32446;DHT22;18899;50.748;7.102;2023-12-29T12:25:03;14.10;99.90
32446;DHT22;18899;50.748;7.102;2023-12-29T12:27:30;14.10;99.90
32446;DHT22;18899;50.748;7.102;2023-12-29T12:29:57;14.10;99.90
32446;DHT22;18899;50.748;7.102;2023-12-29T12:32:29;14.10;99.90
32446;DHT22;18899;50.748;7.102;2023-12-29T12:34:55;14.20;99.90
32446;DHT22;18899;50.748;7.102;2023-12-29T12:37:28;14.20;99.90
32446;DHT22;18899;50.748;7.102;2023-12-29T12:39:54;14.30;99.90
32446;DHT22;18899;50.748;7.102;2023-12-29T12:42:21;14.60;99.90
32446;DHT22;18899;50.748;7.102;2023-12-29T12:47:32;14.70;99.90
32446;DHT22;18899;50.748;7.102;2023-12-29T12:49:59;14.70;99.90
32446;DHT22;18899;50.748;7.102;2023-12-29T12:52:25;14.60;99.90
32446;DHT22;18899;50.748;7.102;2023-12-29T12:54:53;14.50;99.90
32446;DHT22;18899;50.748;7.102;2023-12-29T12:57:20;14.50;99.90
32446;DHT22;18899;50.748;7.102;2023-12-29T12:59:46;14.40;99.90
32446;DHT22;18899;50.748;7.102;2023-12-29T13:02:12;14.30;99.90
32446;DHT22;18899;50.748;7.102;2023-12-29T13:04:41;14.30;99.90
32446;DHT22;18899;50.748;7.102;2023-12-29T13:07:07;14.30;99.90
32446;DHT22;18899;50.748;7.102;2023-12-29T13:09:35;14.30;99.90
32446;DHT22;18899;50.748;7.102;2023-12-29T13:12:14;14.10;99.90
32446;DHT22;18899;50.748;7.102;2023-12-29T13:14:41;14.10;99.90
32446;DHT22;18899;50.748;7.102;2023-12-29T13:17:12;14.20;99.90
32446;DHT22;18899;50.748;7.102;2023-12-29T13:19:38;14.20;99.90
32446;DHT22;18899;50.748;7.102;2023-12-29T13:22:12;14.20;99.90
32446;DHT22;18899;50.748;7.102;2023-12-29T13:24:46;14.20;99.90
32446;DHT22;18899;50.748;7.102;2023-12-29T13:27:13;14.10;99.90
32446;DHT22;18899;50.748;7.102;2023-12-29T13:29:39;14.00;99.90
32446;DHT22;18899;50.748;7.102;2023-12-29T13:32:16;13.90;99.90
32446;DHT22;18899;50.748;7.102;2023-12-29T13:35:03;13.70;99.90
32446;DHT22;18899;50.748;7.102;2023-12-29T13:37:31;13.60;99.90
32446;DHT22;18899;50.748;7.102;2023-12-29T13:40:14;13.60;99.90
32446;DHT22;18899;50.748;7.102;2023-12-29T13:42:41;13.50;99.90
32446;DHT22;18899;50.748;7.102;2023-12-29T13:45:09;13.50;99.90
32446;DHT22;18899;50.748;7.102;2023-12-29T13:47:37;13.50;99.90
32446;DHT22;18899;50.748;7.102;2023-12-29T13:50:03;13.50;99.90
32446;DHT22;18899;50.748;7.102;2023-12-29T13:52:30;13.40;99.90
32446;DHT22;18899;50.748;7.102;2023-12-29T13:54:55;13.40;99.90
32446;DHT22;18899;50.748;7.102;2023-12-29T13:57:34;13.30;99.90
32446;DHT22;18899;50.748;7.102;2023-12-29T14:00:19;13.30;99.90
32446;DHT22;18899;50.748;7.102;2023-12-29T14:10:38;13.20;99.90
32446;DHT22;18899;50.748;7.102;2023-12-29T14:13:14;13.10;99.90
32446;DHT22;18899;50.748;7.102;2023-12-29T14:15:44;13.00;99.90
32446;DHT22;18899;50.748;7.102;2023-12-29T14:18:33;12.90;99.90
32446;DHT22;18899;50.748;7.102;2023-12-29T14:21:23;12.80;99.90
32446;DHT22;18899;50.748;7.102;2023-12-29T14:26:30;12.70;99.90
32446;DHT22;18899;50.748;7.102;2023-12-29T14:29:06;12.80;99.90
32446;DHT22;18899;50.748;7.102;2023-12-29T14:31:39;12.70;99.90
32446;DHT22;18899;50.748;7.102;2023-12-29T14:34:06;12.70;99.90
32446;DHT22;18899;50.748;7.102;2023-12-29T14:36:33;12.70;99.90
32446;DHT22;18899;50.748;7.102;2023-12-29T14:38:58;12.80;99.90
32446;DHT22;18899;50.748;7.102;2023-12-29T14:41:24;12.80;99.90
32446;DHT22;18899;50.748;7.102;2023-12-29T14:43:50;12.70;99.90
32446;DHT22;18899;50.748;7.102;2023-12-29T14:46:16;12.70;99.90
32446;DHT22;18899;50.748;7.102;2023-12-29T14:48:42;12.70;99.90
32446;DHT22;18899;50.748;7.102;2023-12-29T14:51:08;12.70;99.90
32446;DHT22;18899;50.748;7.102;2023-12-29T14:53:33;12.70;99.90
32446;DHT22;18899;50.748;7.102;2023-12-29T14:55:59;12.70;99.90
32446;DHT22;18899;50.748;7.102;2023-12-29T14:58:25;12.70;99.90
32446;DHT22;18899;50.748;7.102;2023-12-29T15:00:50;12.70;99.90
32446;DHT22;18899;50.748;7.102;2023-12-29T15:03:16;12.60;99.90
32446;DHT22;18899;50.748;7.102;2023-12-29T15:05:43;12.70;99.90
32446;DHT22;18899;50.748;7.102;2023-12-29T15:08:09;12.70;99.90
32446;DHT22;18899;50.748;7.102;2023-12-29T15:10:35;12.60;99.90
32446;DHT22;18899;50.748;7.102;2023-12-29T15:13:01;12.60;99.90
32446;DHT22;18899;50.748;7.102;2023-12-29T15:15:27;12.60;99.90
32446;DHT22;18899;50.748;7.102;2023-12-29T15:17:52;12.50;99.90
32446;DHT22;18899;50.748;7.102;2023-12-29T15:20:18;12.50;99.90
32446;DHT22;18899;50.748;7.102;2023-12-29T15:22:43;12.50;99.90
32446;DHT22;18899;50.748;7.102;2023-12-29T15:25:09;12.40;99.90
32446;DHT22;18899;50.748;7.102;2023-12-29T15:27:35;12.50;99.90
32446;DHT22;18899;50.748;7.102;2023-12-29T15:30:00;12.40;99.90
32446;DHT22;18899;50.748;7.102;2023-12-29T15:32:26;12.40;99.90
32446;DHT22;18899;50.748;7.102;2023-12-29T15:34:51;12.40;99.90
32446;DHT22;18899;50.748;7.102;2023-12-29T15:37:17;12.40;99.90
32446;DHT22;18899;50.748;7.102;2023-12-29T15:39:44;12.40;99.90
32446;DHT22;18899;50.748;7.102;2023-12-29T15:42:10;12.30;99.90
32446;DHT22;18899;50.748;7.102;2023-12-29T15:44:36;12.40;99.90
32446;DHT22;18899;50.748;7.102;2023-12-29T15:47:01;12.30;99.90
32446;DHT22;18899;50.748;7.102;2023-12-29T15:49:27;12.30;99.90
32446;DHT22;18899;50.748;7.102;2023-12-29T15:51:52;12.30;99.90
32446;DHT22;18899;50.748;7.102;2023-12-29T15:54:18;12.30;99.90
32446;DHT22;18899;50.748;7.102;2023-12-29T15:56:43;12.30;99.90